Terminal Aerodrome Forecast
Issued by NWS Upton, NY

Home | Current Version | Previous Version | Text Only | Print | Product List | Glossary On
Versions: 1 2 3 4 5 6 7 8 9 10 11 12 13 14 15 16 17 18 19 20 21 22 23 24 25 26 27 28 29 30 31 32 33 34 35 36 37
000
FTUS41 KOKX 271534 AAC
TAFLGA
TAF AMD
KLGA 271534Z 2716/2812 35008KT P6SM SCT015 BKN035
     FM271700 34008KT P6SM BKN040 BKN150
     FM280600 33014G22KT P6SM SCT050 BKN150=

USA.gov is the U.S. government's official web portal to all federal, state and local government web resources and services.